Time;durP1;ratioP1;P1;durP2;ratioP2;P2;SDS_P1;SDS_P2;PMS_P1;PMS_P2;Temp;Humidity;BMP_temperature;BMP_pressure;BME280_temperature;BME280_humidity;BME280_pressure;Samples;Min_cycle;Max_cycle;Signal;HPM_P1;HPM_P2
2022/10/04 00:02:20;;;;;;;1.05;1.05;;;4.40;99.90;;;;;;5053719;28;20456;-74
2022/10/04 00:05:18;;;;;;;1.17;0.87;;;4.40;99.90;;;;;;5054063;28;20586;-75
2022/10/04 00:07:54;;;;;;;1.00;1.00;;;4.40;99.90;;;;;;4972878;28;20451;-74
2022/10/04 00:10:29;;;;;;;0.80;0.70;;;4.40;99.90;;;;;;4956924;28;20439;-75
2022/10/04 00:12:59;;;;;;;1.02;1.02;;;4.40;99.90;;;;;;4956901;28;20935;-74
2022/10/04 00:15:32;;;;;;;1.83;1.27;;;4.40;99.90;;;;;;4972644;28;20459;-74
2022/10/04 00:18:20;;;;;;;1.02;1.00;;;4.30;99.90;;;;;;4978970;28;20581;-74
2022/10/04 00:20:52;;;;;;;1.63;1.08;;;4.30;99.90;;;;;;4970053;28;20440;-74
2022/10/04 00:23:24;;;;;;;2.72;0.77;;;4.30;99.90;;;;;;4972803;28;21033;-75
2022/10/04 00:26:01;;;;;;;0.70;0.70;;;4.30;99.90;;;;;;4973069;28;20436;-74
2022/10/04 00:28:35;;;;;;;1.23;1.13;;;4.40;99.90;;;;;;4972251;28;20440;-74
2022/10/04 00:31:06;;;;;;;1.15;0.75;;;4.30;99.90;;;;;;4972392;28;20908;-74
2022/10/04 00:33:43;;;;;;;0.75;0.73;;;4.30;99.90;;;;;;4972744;28;20435;-75
2022/10/04 00:36:28;;;;;;;0.63;0.63;;;4.20;99.90;;;;;;4973084;28;20764;-75
2022/10/04 00:39:03;;;;;;;1.00;0.60;;;4.20;99.90;;;;;;4972390;28;20432;-74
2022/10/04 00:42:17;;;;;;;0.52;0.52;;;4.20;99.90;;;;;;4972199;28;20440;-75
2022/10/04 00:44:59;;;;;;;0.70;0.60;;;4.20;99.90;;;;;;5012497;28;20429;-75
2022/10/04 00:47:32;;;;;;;1.08;0.63;;;4.30;99.90;;;;;;5053400;28;20452;-74
2022/10/04 00:50:14;;;;;;;0.60;0.60;;;4.30;99.90;;;;;;5053337;28;20435;-74
2022/10/04 00:52:48;;;;;;;1.73;0.40;;;4.30;99.90;;;;;;5053267;28;20433;-74
2022/10/04 00:55:25;;;;;;;0.93;0.93;;;4.30;99.90;;;;;;5052460;28;20864;-74
2022/10/04 00:57:58;;;;;;;0.87;0.40;;;4.20;99.90;;;;;;5071962;28;20493;-74
2022/10/04 01:00:25;;;;;;;0.75;0.75;;;4.10;99.90;;;;;;5053195;28;20958;-74
2022/10/04 01:03:01;;;;;;;1.15;1.08;;;4.00;99.90;;;;;;5052569;28;20432;-74
2022/10/04 01:05:36;;;;;;;1.30;0.80;;;4.00;99.90;;;;;;5065304;28;20454;-74
2022/10/04 01:08:23;;;;;;;1.80;0.70;;;4.00;99.90;;;;;;5076180;28;20431;-74
2022/10/04 01:11:04;;;;;;;0.95;0.80;;;4.00;99.90;;;;;;5072763;28;20431;-74
2022/10/04 01:13:44;;;;;;;0.57;0.57;;;4.00;99.90;;;;;;5071578;28;20427;-75
2022/10/04 01:16:18;;;;;;;2.00;0.70;;;3.80;99.90;;;;;;5072908;28;20431;-74
2022/10/04 01:18:46;;;;;;;1.38;1.05;;;3.70;99.90;;;;;;5072922;28;20913;-75
2022/10/04 01:21:19;;;;;;;0.88;0.77;;;3.70;99.90;;;;;;5072737;28;20427;-74
2022/10/04 01:23:56;;;;;;;0.50;0.50;;;3.60;99.90;;;;;;5072365;28;20940;-74
2022/10/04 01:26:29;;;;;;;0.65;0.65;;;3.70;99.90;;;;;;5072698;28;20431;-74
2022/10/04 01:29:08;;;;;;;0.80;0.80;;;3.80;99.90;;;;;;5072506;28;20428;-74
2022/10/04 01:31:56;;;;;;;0.60;0.60;;;3.90;99.90;;;;;;5072528;28;20428;-74
2022/10/04 01:34:29;;;;;;;1.10;1.00;;;4.00;99.90;;;;;;5072126;28;20901;-75
2022/10/04 01:36:58;;;;;;;1.17;1.13;;;3.90;99.90;;;;;;5072742;28;20432;-74
2022/10/04 01:39:26;;;;;;;1.17;1.08;;;3.80;99.90;;;;;;5072064;28;20431;-74
2022/10/04 01:42:19;;;;;;;0.83;0.70;;;3.80;99.90;;;;;;5072049;28;20428;-74
2022/10/04 01:44:52;;;;;;;0.63;0.50;;;3.80;99.90;;;;;;5071411;28;20427;-74
2022/10/04 01:47:30;;;;;;;0.82;0.82;;;3.90;99.90;;;;;;5070719;28;20424;-74
2022/10/04 01:50:05;;;;;;;0.90;0.43;;;4.00;99.90;;;;;;5072241;28;20428;-74
2022/10/04 01:52:38;;;;;;;1.35;0.77;;;4.00;99.90;;;;;;5071959;28;20763;-74
2022/10/04 01:55:15;;;;;;;0.80;0.80;;;3.90;99.90;;;;;;5072086;28;20423;-74
2022/10/04 01:57:51;;;;;;;0.77;0.77;;;3.80;99.90;;;;;;5071094;28;20506;-75
2022/10/04 02:00:20;;;;;;;0.98;0.98;;;3.70;99.90;;;;;;5072131;28;20435;-74
2022/10/04 02:03:04;;;;;;;0.60;0.60;;;3.60;99.90;;;;;;5072070;28;20482;-74
2022/10/04 02:05:52;;;;;;;1.40;0.93;;;3.60;99.90;;;;;;5072281;28;20825;-74
2022/10/04 02:08:27;;;;;;;0.85;0.85;;;3.60;99.90;;;;;;5070713;28;20965;-74
2022/10/04 02:10:59;;;;;;;1.20;1.10;;;3.60;99.90;;;;;;5072159;28;20455;-74
2022/10/04 02:13:39;;;;;;;1.00;0.90;;;3.60;99.90;;;;;;5070861;28;20979;-75
2022/10/04 02:16:12;;;;;;;0.82;0.65;;;3.50;99.90;;;;;;5071865;28;20438;-75
2022/10/04 02:18:42;;;;;;;1.70;1.25;;;3.50;99.90;;;;;;5071704;28;20435;-74
2022/10/04 02:21:11;;;;;;;1.45;0.80;;;3.50;99.90;;;;;;5071962;28;20858;-74
2022/10/04 02:23:39;;;;;;;1.85;1.20;;;3.50;99.90;;;;;;5071557;28;20423;-74
2022/10/04 02:26:08;;;;;;;1.88;1.40;;;3.60;99.90;;;;;;5071702;28;20446;-74
2022/10/04 02:28:38;;;;;;;2.03;1.00;;;3.70;99.90;;;;;;5070084;28;20423;-74
2022/10/04 02:33:56;;;;;;;0.80;0.80;;;3.80;99.90;;;;;;5070853;28;20427;-74
2022/10/04 02:36:25;;;;;;;0.43;0.43;;;4.00;99.90;;;;;;5071821;28;20431;-74
2022/10/04 02:39:05;;;;;;;1.73;0.90;;;4.00;99.90;;;;;;5071384;28;20438;-75
2022/10/04 02:41:53;;;;;;;1.70;1.40;;;4.00;99.90;;;;;;5071303;28;20428;-75
2022/10/04 02:44:33;;;;;;;0.95;0.93;;;4.10;99.90;;;;;;5071571;28;20434;-74
2022/10/04 02:47:15;;;;;;;0.75;0.75;;;4.10;99.90;;;;;;5072083;28;20434;-74
2022/10/04 02:49:56;;;;;;;0.75;0.75;;;4.10;99.90;;;;;;5071453;28;21028;-74
2022/10/04 02:52:45;;;;;;;0.73;0.73;;;4.10;99.90;;;;;;5071918;28;20427;-75
2022/10/04 02:55:11;;;;;;;0.73;0.73;;;4.10;99.90;;;;;;5070423;28;20431;-75
2022/10/04 02:57:41;;;;;;;1.17;1.08;;;4.10;99.90;;;;;;5071551;28;20427;-75
2022/10/04 03:00:19;;;;;;;0.47;0.47;;;4.20;99.90;;;;;;5071589;28;20438;-75
2022/10/04 03:03:07;;;;;;;6.38;1.38;;;4.40;99.90;;;;;;5071545;28;20434;-75
2022/10/04 03:05:39;;;;;;;0.40;0.40;;;4.60;99.90;;;;;;5071655;28;20423;-75
2022/10/04 03:08:06;;;;;;;1.05;0.95;;;4.70;99.90;;;;;;5071090;28;20434;-74
2022/10/04 03:10:34;;;;;;;0.52;0.52;;;4.90;99.90;;;;;;5071389;28;20452;-75
2022/10/04 03:13:02;;;;;;;1.52;0.77;;;4.90;99.90;;;;;;5070767;28;20428;-74
2022/10/04 03:15:30;;;;;;;0.85;0.85;;;4.90;99.90;;;;;;5071663;28;20419;-74
2022/10/04 03:17:58;;;;;;;0.80;0.80;;;5.00;99.90;;;;;;5071438;28;20419;-74
2022/10/04 03:20:25;;;;;;;0.83;0.83;;;4.90;99.90;;;;;;5070634;28;21262;-75
2022/10/04 03:22:55;;;;;;;0.70;0.70;;;4.90;99.90;;;;;;5070780;28;20872;-74
2022/10/04 03:25:25;;;;;;;0.95;0.95;;;4.80;99.90;;;;;;5073570;28;20434;-74
2022/10/04 03:27:52;;;;;;;1.58;1.48;;;4.80;99.90;;;;;;5075133;28;20424;-74
2022/10/04 03:30:22;;;;;;;0.70;0.70;;;4.70;99.90;;;;;;5075334;28;20444;-75
2022/10/04 03:32:50;;;;;;;0.65;0.65;;;4.60;99.90;;;;;;5074504;28;20909;-73
2022/10/04 03:35:36;;;;;;;1.53;1.13;;;4.50;99.90;;;;;;5074005;28;20432;-75
2022/10/04 03:38:10;;;;;;;0.65;0.50;;;4.40;99.90;;;;;;5074544;28;20434;-74
2022/10/04 03:40:40;;;;;;;0.52;0.52;;;4.30;99.90;;;;;;5074219;28;20427;-75
2022/10/04 03:43:11;;;;;;;0.77;0.75;;;4.30;99.90;;;;;;5074580;28;20424;-74
2022/10/04 03:45:41;;;;;;;1.00;0.90;;;4.30;99.90;;;;;;5073172;28;20423;-74
2022/10/04 03:48:26;;;;;;;0.70;0.63;;;4.30;99.90;;;;;;5074399;28;21111;-74
2022/10/04 03:50:53;;;;;;;1.30;1.05;;;4.40;99.90;;;;;;5074392;28;20438;-74
2022/10/04 03:53:34;;;;;;;0.75;0.75;;;4.60;99.90;;;;;;5074137;28;20454;-74
2022/10/04 03:56:19;;;;;;;0.85;0.45;;;4.70;99.90;;;;;;5074314;28;20431;-74
2022/10/04 03:58:48;;;;;;;0.75;0.75;;;4.90;99.90;;;;;;5074089;28;20435;-74
2022/10/04 04:01:42;;;;;;;2.35;0.70;;;5.10;99.90;;;;;;5073951;28;20910;-74
2022/10/04 04:04:24;;;;;;;1.17;1.08;;;5.20;99.90;;;;;;5074095;28;20482;-74
2022/10/04 04:07:16;;;;;;;2.70;0.70;;;5.30;99.90;;;;;;5074157;28;20485;-75
2022/10/04 04:10:09;;;;;;;2.90;0.70;;;5.30;99.90;;;;;;5073994;28;20423;-75
2022/10/04 04:12:55;;;;;;;1.67;1.40;;;5.30;99.90;;;;;;5074199;28;20463;-75
2022/10/04 04:15:27;;;;;;;0.90;0.70;;;5.30;99.90;;;;;;5073642;28;20437;-74
2022/10/04 04:17:54;;;;;;;1.70;1.38;;;5.30;99.90;;;;;;5074448;28;20435;-76
2022/10/04 04:20:26;;;;;;;1.55;0.95;;;5.30;99.90;;;;;;5074138;28;20431;-75
2022/10/04 04:22:58;;;;;;;0.98;0.98;;;5.20;99.90;;;;;;5073998;28;20427;-75
2022/10/04 04:25:28;;;;;;;0.93;0.75;;;5.30;99.90;;;;;;5072811;28;20569;-75
2022/10/04 04:28:11;;;;;;;0.80;0.70;;;5.30;99.90;;;;;;5072913;28;20427;-76
2022/10/04 04:30:44;;;;;;;0.90;0.90;;;5.40;99.90;;;;;;5072882;28;20880;-75
2022/10/04 04:33:29;;;;;;;0.57;0.57;;;5.40;99.90;;;;;;5073454;28;20511;-75
2022/10/04 04:36:04;;;;;;;1.10;0.80;;;5.40;99.90;;;;;;5069646;28;20455;-75
2022/10/04 04:38:32;;;;;;;0.90;0.90;;;5.50;99.90;;;;;;5073691;28;20507;-74
2022/10/04 04:41:08;;;;;;;1.25;1.15;;;5.50;99.90;;;;;;5073704;28;20427;-76
2022/10/04 04:43:42;;;;;;;0.80;0.80;;;5.50;99.90;;;;;;5077860;28;20431;-75
2022/10/04 04:46:11;;;;;;;0.90;0.90;;;5.50;99.90;;;;;;5073693;28;20428;-75
2022/10/04 04:49:01;;;;;;;0.70;0.70;;;5.50;99.90;;;;;;5073501;28;20423;-74
2022/10/04 04:51:32;;;;;;;0.30;0.30;;;5.60;99.90;;;;;;5073548;28;20518;-75
2022/10/04 04:54:02;;;;;;;0.82;0.82;;;5.50;99.90;;;;;;5073195;28;20432;-75
2022/10/04 04:56:29;;;;;;;1.23;0.90;;;5.60;99.90;;;;;;5073478;28;20797;-75
2022/10/04 04:59:01;;;;;;;0.68;0.68;;;5.60;99.90;;;;;;5072073;28;20432;-75
2022/10/04 05:01:55;;;;;;;1.15;1.05;;;5.70;99.90;;;;;;5073351;28;20427;-75
2022/10/04 05:04:23;;;;;;;1.80;1.20;;;5.70;99.90;;;;;;5070000;28;20889;-75
2022/10/04 05:07:05;;;;;;;1.07;1.07;;;5.70;99.90;;;;;;5072352;28;20430;-75
2022/10/04 05:09:34;;;;;;;0.97;0.97;;;5.80;99.90;;;;;;5073263;28;20431;-75
2022/10/04 05:12:09;;;;;;;0.80;0.80;;;5.80;99.90;;;;;;5072970;28;20427;-75
2022/10/04 05:14:44;;;;;;;0.50;0.50;;;5.80;99.90;;;;;;5072630;28;20435;-75
2022/10/04 05:17:33;;;;;;;0.52;0.45;;;5.80;99.90;;;;;;5074029;28;20434;-75
2022/10/04 05:20:01;;;;;;;0.95;0.95;;;5.80;99.90;;;;;;5073206;28;20435;-74
2022/10/04 05:22:30;;;;;;;0.65;0.65;;;5.90;99.90;;;;;;5071315;28;20918;-76
2022/10/04 05:25:01;;;;;;;0.60;0.60;;;5.90;99.90;;;;;;5072049;28;20423;-76
2022/10/04 05:27:43;;;;;;;0.98;0.98;;;5.90;99.90;;;;;;5071482;28;20802;-77
2022/10/04 05:30:20;;;;;;;2.03;1.27;;;5.90;99.90;;;;;;5072460;28;20459;-76
2022/10/04 05:33:10;;;;;;;0.88;0.88;;;5.90;99.90;;;;;;5072200;28;20431;-76
2022/10/04 05:36:37;;;;;;;1.90;1.17;;;5.90;99.90;;;;;;5072256;28;20439;-77
2022/10/04 05:39:24;;;;;;;0.80;0.80;;;5.90;99.90;;;;;;5010613;28;20994;-76
2022/10/04 05:42:24;;;;;;;0.65;0.65;;;6.00;99.90;;;;;;5072082;28;20431;-76
2022/10/04 05:44:55;;;;;;;0.82;0.82;;;5.90;99.90;;;;;;5071165;28;20431;-77
2022/10/04 05:47:29;;;;;;;0.55;0.55;;;6.00;99.90;;;;;;5063093;28;20424;-75
2022/10/04 05:49:57;;;;;;;1.25;0.65;;;6.00;99.90;;;;;;5071214;28;20451;-75
2022/10/04 05:52:36;;;;;;;2.55;0.95;;;6.00;99.90;;;;;;5070731;28;20427;-76
2022/10/04 05:55:12;;;;;;;1.23;1.13;;;6.10;99.90;;;;;;5071101;28;20428;-77
2022/10/04 05:57:49;;;;;;;1.20;1.10;;;6.10;99.90;;;;;;5072031;28;20602;-77
2022/10/04 06:00:24;;;;;;;0.98;0.95;;;6.10;99.90;;;;;;5071590;28;20801;-76
2022/10/04 06:03:14;;;;;;;2.22;1.25;;;6.10;99.90;;;;;;5071604;28;20438;-76
2022/10/04 06:06:06;;;;;;;1.20;1.10;;;6.20;99.90;;;;;;5071852;28;20427;-76
2022/10/04 06:09:11;;;;;;;2.28;0.90;;;6.20;99.90;;;;;;5072096;28;20423;-76
2022/10/04 06:11:44;;;;;;;1.77;1.00;;;6.30;99.90;;;;;;5071706;28;20435;-76
2022/10/04 06:14:49;;;;;;;1.67;0.75;;;6.40;99.90;;;;;;5071682;28;20427;-76
2022/10/04 06:17:47;;;;;;;1.00;0.97;;;6.50;99.90;;;;;;5072015;28;20430;-76
2022/10/04 06:20:41;;;;;;;1.65;1.02;;;6.50;99.90;;;;;;5071919;28;20428;-76
2022/10/04 06:23:14;;;;;;;0.90;0.90;;;6.50;99.90;;;;;;5071146;28;20427;-77
2022/10/04 06:26:12;;;;;;;4.15;1.13;;;6.60;99.90;;;;;;5071829;28;20894;-76
2022/10/04 06:28:54;;;;;;;3.20;1.70;;;6.60;99.90;;;;;;5071435;28;20431;-76
2022/10/04 06:31:51;;;;;;;0.95;0.90;;;6.60;99.90;;;;;;5071272;28;20428;-76
2022/10/04 06:34:35;;;;;;;1.83;1.73;;;6.70;99.90;;;;;;5070804;28;20431;-76
2022/10/04 06:37:36;;;;;;;4.80;1.83;;;6.70;99.90;;;;;;5071914;28;20428;-77
2022/10/04 06:40:15;;;;;;;1.63;1.50;;;6.80;99.90;;;;;;5071411;28;20431;-76
2022/10/04 06:43:13;;;;;;;2.13;1.58;;;6.80;99.90;;;;;;5071238;28;20432;-77
2022/10/04 06:46:11;;;;;;;1.63;1.08;;;6.90;99.90;;;;;;5071936;28;20438;-77
2022/10/04 06:49:16;;;;;;;3.70;1.70;;;7.00;99.90;;;;;;5016245;28;20494;-77
2022/10/04 06:51:49;;;;;;;1.45;1.35;;;7.10;99.90;;;;;;5071379;28;20431;-78
2022/10/04 06:54:34;;;;;;;1.50;1.38;;;7.20;99.90;;;;;;5053970;28;20918;-77
2022/10/04 06:57:35;;;;;;;2.10;1.73;;;7.20;99.90;;;;;;5071176;28;20431;-77
2022/10/04 07:00:20;;;;;;;2.53;1.80;;;7.10;99.90;;;;;;5073875;28;20423;-76
2022/10/04 07:03:29;;;;;;;2.40;1.65;;;7.20;99.90;;;;;;5075055;28;20431;-76
2022/10/04 07:06:03;;;;;;;1.70;1.33;;;7.20;99.90;;;;;;5073688;28;20431;-75
2022/10/04 07:08:40;;;;;;;1.57;1.27;;;7.10;99.90;;;;;;5075122;28;20463;-77
2022/10/04 07:11:23;;;;;;;0.70;0.70;;;7.10;99.90;;;;;;5075161;28;20439;-76
2022/10/04 07:14:01;;;;;;;0.60;0.60;;;7.20;99.90;;;;;;5074528;28;20449;-76
2022/10/04 07:16:37;;;;;;;1.90;0.80;;;7.40;99.90;;;;;;5075187;28;20423;-77
2022/10/04 07:19:18;;;;;;;0.67;0.67;;;8.00;99.90;;;;;;5075818;28;20428;-77
2022/10/04 07:21:52;;;;;;;0.47;0.43;;;8.50;99.90;;;;;;5075279;28;20431;-76
2022/10/04 07:24:25;;;;;;;0.40;0.40;;;9.20;99.90;;;;;;5074726;28;20423;-76
2022/10/04 07:26:54;;;;;;;0.90;0.43;;;9.80;99.90;;;;;;5074560;28;20901;-76
2022/10/04 07:29:26;;;;;;;0.55;0.45;;;9.90;99.90;;;;;;5066974;28;20423;-76
2022/10/04 07:32:20;;;;;;;0.60;0.60;;;9.90;99.90;;;;;;5074854;28;20427;-76
2022/10/04 07:35:15;;;;;;;1.00;1.00;;;9.60;99.90;;;;;;5073560;28;20435;-76
2022/10/04 07:37:57;;;;;;;2.17;0.73;;;9.50;99.90;;;;;;5055069;28;20915;-76
2022/10/04 07:40:28;;;;;;;0.50;0.50;;;9.70;99.90;;;;;;5055132;28;20546;-76
2022/10/04 07:43:12;;;;;;;0.32;0.32;;;9.90;99.90;;;;;;5054179;28;20436;-76
2022/10/04 07:45:40;;;;;;;0.73;0.70;;;10.10;99.90;;;;;;5055302;28;20429;-77
2022/10/04 07:48:14;;;;;;;0.90;0.90;;;10.30;99.90;;;;;;5053850;28;20416;-77
2022/10/04 07:51:02;;;;;;;0.70;0.70;;;10.20;99.90;;;;;;5055280;28;20429;-77
2022/10/04 07:53:42;;;;;;;0.45;0.45;;;10.40;99.90;;;;;;5055236;28;20892;-77
2022/10/04 07:56:26;;;;;;;1.00;1.00;;;10.70;99.90;;;;;;5054592;28;20946;-77
2022/10/04 07:59:12;;;;;;;1.23;0.70;;;11.10;99.90;;;;;;5054315;28;20429;-76
2022/10/04 08:01:47;;;;;;;0.65;0.60;;;11.30;99.90;;;;;;5054417;28;20452;-77
2022/10/04 08:04:43;;;;;;;0.90;0.82;;;11.60;99.90;;;;;;5053909;28;20464;-77
2022/10/04 08:07:21;;;;;;;0.70;0.70;;;12.10;99.90;;;;;;5053860;28;20440;-74
2022/10/04 08:09:48;;;;;;;0.68;0.68;;;12.50;99.90;;;;;;5054195;28;20424;-76
2022/10/04 08:12:27;;;;;;;0.70;0.70;;;12.70;99.90;;;;;;5052194;28;20437;-75
2022/10/04 08:15:03;;;;;;;0.70;0.70;;;13.10;99.90;;;;;;5054506;28;20429;-76
2022/10/04 08:17:55;;;;;;;0.50;0.50;;;12.70;99.90;;;;;;5053421;28;20444;-75
2022/10/04 08:20:57;;;;;;;0.75;0.75;;;12.70;99.90;;;;;;5057287;28;20437;-77
2022/10/04 08:23:27;;;;;;;0.80;0.80;;;12.80;99.90;;;;;;5059746;28;20908;-77
2022/10/04 08:26:28;;;;;;;1.20;0.93;;;13.00;99.90;;;;;;5074377;28;20427;-78
2022/10/04 08:32:34;;;;;;;0.60;0.60;;;12.20;99.90;;;;;;5052735;28;20947;-75
2022/10/04 08:35:18;;;;;;;0.47;0.47;;;12.80;99.90;;;;;;5073382;28;20439;-75
2022/10/04 08:37:53;;;;;;;0.70;0.70;;;13.20;99.90;;;;;;5073390;28;20435;-75
2022/10/04 08:40:53;;;;;;;0.63;0.63;;;13.50;99.90;;;;;;5073891;28;20427;-76
2022/10/04 08:43:58;;;;;;;0.60;0.60;;;13.30;99.90;;;;;;5072845;28;20913;-75
2022/10/04 08:46:44;;;;;;;0.57;0.57;;;;;;;;;;5072460;28;20423;-76
2022/10/04 08:49:31;;;;;;;0.60;0.60;;;13.60;99.90;;;;;;5073281;28;20459;-75
2022/10/04 08:52:39;;;;;;;0.57;0.57;;;14.30;99.90;;;;;;5073078;28;20431;-76
2022/10/04 08:55:10;;;;;;;0.80;0.80;;;14.10;99.90;;;;;;5073136;28;20440;-78
2022/10/04 08:57:45;;;;;;;0.50;0.50;;;14.10;99.90;;;;;;5073870;28;20868;-77
2022/10/04 09:00:39;;;;;;;0.60;0.60;;;13.90;99.90;;;;;;5073417;28;20434;-79
2022/10/04 09:03:30;;;;;;;0.50;0.50;;;14.10;99.90;;;;;;5073964;28;20432;-78
2022/10/04 09:06:24;;;;;;;0.60;0.60;;;13.60;99.90;;;;;;5073373;28;20428;-78
2022/10/04 09:09:29;;;;;;;0.93;0.63;;;13.50;99.90;;;;;;5073070;28;20426;-77
2022/10/04 09:12:07;;;;;;;0.65;0.65;;;14.00;99.90;;;;;;5023426;28;20841;-78
2022/10/04 09:14:41;;;;;;;1.50;0.90;;;14.30;99.90;;;;;;5073791;28;20426;-79
2022/10/04 09:17:35;;;;;;;0.50;0.50;;;14.10;99.90;;;;;;5074352;28;20433;-77
2022/10/04 09:20:40;;;;;;;0.60;0.60;;;14.30;99.90;;;;;;5073426;28;20427;-77
2022/10/04 09:23:28;;;;;;;0.98;0.95;;;14.40;99.90;;;;;;5073456;28;20427;-80
2022/10/04 09:26:06;;;;;;;1.17;1.10;;;14.10;99.90;;;;;;5073894;28;20435;-79
2022/10/04 09:28:48;;;;;;;0.80;0.80;;;14.40;99.90;;;;;;5073213;28;20428;-79
2022/10/04 09:31:50;;;;;;;0.70;0.70;;;14.50;99.90;;;;;;5073214;28;20477;-81
2022/10/04 09:34:44;;;;;;;0.90;0.90;;;14.80;99.90;;;;;;5009615;28;20517;-77
2022/10/04 09:37:42;;;;;;;0.60;0.60;;;15.30;99.90;;;;;;5011052;28;20428;-78
2022/10/04 09:40:12;;;;;;;0.77;0.77;;;15.70;99.90;;;;;;5012253;28;20424;-78
2022/10/04 09:42:38;;;;;;;0.80;0.80;;;16.00;99.90;;;;;;5011555;28;21071;-79
2022/10/04 09:45:23;;;;;;;0.85;0.70;;;16.00;99.90;;;;;;5010602;28;20432;-79
2022/10/04 09:48:24;;;;;;;0.68;0.68;;;16.50;99.90;;;;;;4995297;28;20440;-77
2022/10/04 09:51:15;;;;;;;0.65;0.65;;;16.40;99.90;;;;;;5011490;28;20519;-80
2022/10/04 09:53:51;;;;;;;0.80;0.50;;;16.80;99.90;;;;;;4992633;28;20453;-77
2022/10/04 09:56:27;;;;;;;0.70;0.70;;;17.20;99.90;;;;;;5009320;28;20432;-78
2022/10/04 09:59:20;;;;;;;0.70;0.70;;;17.60;99.90;;;;;;5010842;28;20969;-77
2022/10/04 10:01:59;;;;;;;0.60;0.60;;;17.80;99.90;;;;;;5009265;28;20474;-77
2022/10/04 10:04:49;;;;;;;0.80;0.80;;;18.20;99.90;;;;;;5009581;28;20843;-78
2022/10/04 10:07:39;;;;;;;0.60;0.57;;;17.80;99.90;;;;;;5007754;28;20441;-79
2022/10/04 10:13:55;;;;;;;0.55;0.52;;;17.90;99.90;;;;;;5071507;28;20840;-78
2022/10/04 10:16:41;;;;;;;1.00;0.90;;;18.60;99.90;;;;;;5073496;28;20436;-78
2022/10/04 10:19:35;;;;;;;0.80;0.80;;;18.10;99.90;;;;;;5072026;28;20427;-78
2022/10/04 10:22:55;;;;;;;1.00;1.00;;;18.20;99.90;;;;;;5073093;28;20446;-79
2022/10/04 10:26:00;;;;;;;1.20;0.95;;;17.70;99.90;;;;;;5009710;28;20810;-77
2022/10/04 10:29:02;;;;;;;0.75;0.75;;;18.00;99.90;;;;;;5071770;28;20435;-76
2022/10/04 10:31:50;;;;;;;1.03;0.90;;;18.50;99.90;;;;;;5071187;28;20427;-76
2022/10/04 10:34:51;;;;;;;0.80;0.80;;;18.30;99.90;;;;;;5070833;28;20484;-77
2022/10/04 10:37:34;;;;;;;0.70;0.70;;;17.70;99.90;;;;;;5071817;28;20543;-76
2022/10/04 10:40:22;;;;;;;0.80;0.80;;;17.50;99.90;;;;;;5072662;28;20423;-78
2022/10/04 10:42:59;;;;;;;1.20;1.00;;;17.50;99.90;;;;;;5071365;28;20424;-77
2022/10/04 10:46:03;;;;;;;0.75;0.75;;;17.10;99.90;;;;;;5071625;28;20424;-77
2022/10/04 10:48:48;;;;;;;1.00;0.73;;;17.30;99.90;;;;;;5071374;28;20577;-76
2022/10/04 10:51:39;;;;;;;1.00;0.70;;;17.30;99.90;;;;;;5071653;28;20423;-79
2022/10/04 10:54:37;;;;;;;0.80;0.70;;;17.80;99.90;;;;;;5072062;28;20431;-77
2022/10/04 10:57:22;;;;;;;1.50;1.20;;;18.00;99.90;;;;;;5070164;28;20431;-76
2022/10/04 11:00:11;;;;;;;0.90;0.90;;;18.10;99.90;;;;;;5070543;28;20423;-76
2022/10/04 11:02:51;;;;;;;0.98;0.98;;;17.90;99.90;;;;;;5070657;28;20435;-74
2022/10/04 11:05:57;;;;;;;1.30;1.20;;;18.20;99.90;;;;;;5069602;28;20451;-80
2022/10/04 11:09:01;;;;;;;1.30;1.30;;;17.90;99.90;;;;;;5070886;28;20478;-77
2022/10/04 11:11:42;;;;;;;1.50;1.40;;;18.10;99.90;;;;;;5071284;28;20434;-77
2022/10/04 11:14:18;;;;;;;1.50;1.25;;;19.00;99.90;;;;;;5069861;28;20868;-75
2022/10/04 11:17:17;;;;;;;1.35;1.25;;;19.80;99.90;;;;;;5071383;28;20432;-76
2022/10/04 11:20:27;;;;;;;1.05;1.05;;;19.50;99.90;;;;;;5071555;28;21118;-75
2022/10/04 11:23:25;;;;;;;1.67;1.27;;;19.50;99.90;;;;;;5071502;28;20807;-75
2022/10/04 11:25:55;;;;;;;1.77;1.50;;;20.10;99.90;;;;;;5070550;28;20901;-76
2022/10/04 11:28:27;;;;;;;1.60;1.50;;;20.40;99.90;;;;;;5070730;28;20424;-78
2022/10/04 11:31:09;;;;;;;2.53;1.60;;;20.60;99.90;;;;;;5070968;28;20427;-77
2022/10/04 11:34:23;;;;;;;1.40;1.30;;;20.60;99.90;;;;;;5070906;28;20431;-77
2022/10/04 11:37:21;;;;;;;1.10;1.10;;;20.10;99.90;;;;;;5070538;28;20492;-78
2022/10/04 11:40:17;;;;;;;1.67;1.57;;;20.40;99.90;;;;;;5070928;28;20438;-76
2022/10/04 11:43:03;;;;;;;1.58;1.45;;;19.60;99.90;;;;;;5070810;28;20432;-76
2022/10/04 11:46:05;;;;;;;3.03;1.67;;;19.20;99.90;;;;;;5072531;28;20423;-78
2022/10/04 11:48:54;;;;;;;3.03;1.70;;;19.10;99.90;;;;;;5074589;28;20431;-79
2022/10/04 11:51:58;;;;;;;1.45;1.35;;;19.50;99.90;;;;;;5074682;28;20428;-79
2022/10/04 11:54:51;;;;;;;1.48;1.33;;;19.90;99.90;;;;;;5074584;28;20431;-79
2022/10/04 11:57:38;;;;;;;1.60;1.50;;;20.40;99.90;;;;;;5080290;28;20423;-78
2022/10/04 12:00:15;;;;;;;1.80;1.67;;;19.90;99.90;;;;;;5074556;28;20844;-79
2022/10/04 12:03:14;;;;;;;1.98;1.77;;;19.70;99.90;;;;;;5074588;28;20488;-77
2022/10/04 12:05:56;;;;;;;2.67;1.88;;;19.50;99.90;;;;;;5072635;28;20496;-76
2022/10/04 12:08:43;;;;;;;2.83;1.85;;;19.40;99.90;;;;;;5074438;28;20433;-76
2022/10/04 12:12:35;;;;;;;2.00;1.50;;;19.60;99.90;;;;;;5074383;28;20441;-77
2022/10/04 12:14:42;;;;;;;1.50;1.40;;;19.90;99.90;;;;;;5073834;28;20847;-77
2022/10/04 12:17:30;;;;;;;1.80;1.70;;;19.40;99.90;;;;;;5074577;28;20436;-78
2022/10/04 12:20:40;;;;;;;2.45;1.77;;;19.60;99.90;;;;;;5073247;28;20435;-77
2022/10/04 12:23:12;;;;;;;1.80;1.40;;;19.00;99.90;;;;;;5073048;28;20427;-76
2022/10/04 12:25:58;;;;;;;2.30;2.00;;;18.80;99.90;;;;;;5074068;28;20434;-77
2022/10/04 12:29:05;;;;;;;1.88;1.73;;;19.10;99.90;;;;;;5073859;28;20435;-78
2022/10/04 12:31:39;;;;;;;2.17;1.63;;;19.60;99.90;;;;;;5074183;28;20434;-78
2022/10/04 12:34:26;;;;;;;1.90;1.80;;;20.30;99.90;;;;;;5073781;28;20433;-77
2022/10/04 12:37:12;;;;;;;1.50;1.40;;;20.50;99.90;;;;;;5073851;28;20439;-79
2022/10/04 12:39:42;;;;;;;1.40;1.30;;;20.10;99.90;;;;;;5073908;28;20435;-78
2022/10/04 12:42:44;;;;;;;1.58;1.48;;;20.00;99.90;;;;;;5073899;28;20459;-78
2022/10/04 12:45:26;;;;;;;1.20;1.20;;;20.00;99.90;;;;;;5072700;28;20446;-78
2022/10/04 12:47:52;;;;;;;1.33;1.23;;;19.90;99.90;;;;;;5073651;28;20439;-79
2022/10/04 12:50:40;;;;;;;1.60;1.50;;;19.60;99.90;;;;;;5073353;28;20430;-78
2022/10/04 12:53:33;;;;;;;1.90;1.70;;;19.90;99.90;;;;;;5073039;28;20427;-77
2022/10/04 12:56:17;;;;;;;1.48;1.38;;;20.00;99.90;;;;;;5072776;28;20508;-77
2022/10/04 12:58:58;;;;;;;1.13;1.13;;;20.60;99.90;;;;;;5072465;28;20438;-76
2022/10/04 13:01:44;;;;;;;1.77;1.10;;;20.70;99.90;;;;;;5072204;28;20423;-76
2022/10/04 13:04:11;;;;;;;1.48;1.33;;;21.20;99.90;;;;;;5071039;28;20436;-78
2022/10/04 13:07:09;;;;;;;1.17;1.07;;;21.10;99.90;;;;;;5072716;28;20436;-77
2022/10/04 13:10:10;;;;;;;1.00;1.00;;;21.20;99.90;;;;;;5072513;28;20450;-75
2022/10/04 13:13:10;;;;;;;1.00;1.00;;;21.20;99.90;;;;;;5072047;28;20438;-78
2022/10/04 13:15:50;;;;;;;1.08;1.02;;;21.50;99.90;;;;;;5071140;28;20457;-76
2022/10/04 13:19:17;;;;;;;1.15;1.15;;;21.60;99.90;;;;;;5072255;28;20448;-78
2022/10/04 13:21:51;;;;;;;0.90;0.90;;;21.70;99.90;;;;;;5072404;28;20434;-78
2022/10/04 13:24:56;;;;;;;0.70;0.70;;;21.80;99.90;;;;;;5071670;28;20428;-77
2022/10/04 13:27:46;;;;;;;0.70;0.70;;;21.40;99.90;;;;;;5071456;28;20428;-77
2022/10/04 13:30:26;;;;;;;1.60;1.00;;;21.10;99.90;;;;;;5072215;28;20758;-77
2022/10/04 13:33:25;;;;;;;0.70;0.70;;;21.10;99.90;;;;;;5071841;28;20810;-78
2022/10/04 13:36:02;;;;;;;1.23;1.02;;;21.60;99.90;;;;;;5072745;28;20476;-78
2022/10/04 13:38:54;;;;;;;1.50;1.00;;;21.80;99.90;;;;;;5072017;28;20428;-77
2022/10/04 13:41:40;;;;;;;0.80;0.80;;;22.10;99.90;;;;;;5071908;28;20947;-78
2022/10/04 13:44:54;;;;;;;1.30;1.20;;;22.50;99.90;;;;;;5072156;28;20431;-77
2022/10/04 13:47:49;;;;;;;1.00;0.90;;;22.10;99.90;;;;;;5069784;28;20419;-78
2022/10/04 13:50:42;;;;;;;0.63;0.63;;;21.90;99.90;;;;;;5069695;28;20427;-78
2022/10/04 13:57:05;;;;;;;0.80;0.80;;;22.00;99.90;;;;;;5069290;28;20454;-78
2022/10/04 13:59:52;;;;;;;0.90;0.90;;;22.20;99.90;;;;;;5053200;28;20460;-78
2022/10/04 14:02:38;;;;;;;0.82;0.82;;;22.40;99.90;;;;;;5069526;28;20435;-77
2022/10/04 14:05:36;;;;;;;0.98;0.90;;;22.40;99.90;;;;;;5069871;28;20431;-78
2022/10/04 14:08:20;;;;;;;0.77;0.77;;;22.30;99.90;;;;;;5069347;28;20431;-78
2022/10/04 14:11:15;;;;;;;1.48;0.70;;;22.10;99.90;;;;;;5068983;28;20420;-78
2022/10/04 14:14:26;;;;;;;0.68;0.68;;;22.40;99.90;;;;;;5068787;28;20501;-77
2022/10/04 14:17:15;;;;;;;1.00;0.90;;;22.90;99.90;;;;;;5068952;28;20488;-78
2022/10/04 14:20:01;;;;;;;1.00;1.00;;;23.40;99.90;;;;;;5071664;28;20431;-76
2022/10/04 14:23:15;;;;;;;0.90;0.90;;;23.40;99.90;;;;;;5067035;28;20443;-78
2022/10/04 14:25:51;;;;;;;0.80;0.80;;;23.00;99.90;;;;;;5070698;28;20924;-77
2022/10/04 14:28:24;;;;;;;1.27;1.08;;;23.10;99.90;;;;;;5071231;28;20424;-79
2022/10/04 14:31:10;;;;;;;1.10;1.00;;;23.70;99.90;;;;;;5072259;28;20423;-76